Time;durP1;ratioP1;P1;durP2;ratioP2;P2;SDS_P1;SDS_P2;PMS_P1;PMS_P2;Temp;Humidity;BMP_temperature;BMP_pressure;BME280_temperature;BME280_humidity;BME280_pressure;Samples;Min_cycle;Max_cycle;Signal;HPM_P1;HPM_P2
2021/05/04 00:02:19;;;;;;;13.22;6.22;;;;;;;3.18;69.50;96851.97;1740726;81;21116;-85
2021/05/04 00:04:46;;;;;;;12.33;6.95;;;;;;;3.14;69.82;96858.69;1732038;81;21502;-85
2021/05/04 00:07:13;;;;;;;9.25;5.75;;;;;;;3.07;69.37;96854.84;1729876;81;21144;-86
2021/05/04 00:09:40;;;;;;;9.53;5.60;;;;;;;3.11;69.16;96850.77;1731871;81;21097;-86
2021/05/04 00:12:08;;;;;;;8.23;5.37;;;;;;;3.09;69.07;96848.86;1727802;81;21180;-85
2021/05/04 00:14:35;;;;;;;11.53;6.30;;;;;;;3.05;68.91;96848.23;1736303;81;21125;-85
2021/05/04 00:17:04;;;;;;;9.48;5.65;;;;;;;3.06;68.90;96851.14;1743457;81;21152;-86
2021/05/04 00:19:31;;;;;;;11.30;5.95;;;;;;;3.10;68.95;96841.84;1728270;81;21155;-86
2021/05/04 00:21:59;;;;;;;8.73;5.67;;;;;;;3.15;69.16;96844.05;1725772;81;21514;-85
2021/05/04 00:24:26;;;;;;;10.98;6.30;;;;;;;3.17;69.05;96834.14;1732744;81;21253;-86
2021/05/04 00:26:53;;;;;;;8.18;5.87;;;;;;;3.23;68.87;96838.98;1728322;81;21170;-85
2021/05/04 00:29:20;;;;;;;8.70;5.60;;;;;;;3.24;69.05;96837.47;1729335;81;21140;-86
2021/05/04 00:31:47;;;;;;;10.93;6.03;;;;;;;3.21;69.10;96831.86;1729704;81;21097;-86
2021/05/04 00:34:14;;;;;;;10.15;5.85;;;;;;;3.16;69.06;96830.45;1728466;81;21155;-86
2021/05/04 00:36:41;;;;;;;8.98;5.55;;;;;;;3.12;69.14;96834.03;1713174;81;21276;-85
2021/05/04 00:39:08;;;;;;;8.90;5.72;;;;;;;3.08;69.23;96832.06;1733455;81;21119;-86
2021/05/04 00:41:35;;;;;;;8.93;5.85;;;;;;;3.06;69.25;96827.57;1736006;81;21138;-86
2021/05/04 00:44:02;;;;;;;9.28;5.55;;;;;;;3.03;69.54;96828.82;1737238;81;21137;-85
2021/05/04 00:46:29;;;;;;;9.23;5.58;;;;;;;3.02;69.43;96830.36;1734197;81;21118;-85
2021/05/04 00:48:56;;;;;;;11.35;5.90;;;;;;;2.96;69.48;96828.94;1729753;81;21152;-85
2021/05/04 00:51:23;;;;;;;8.88;5.50;;;;;;;2.98;69.51;96823.47;1732161;81;21521;-85
2021/05/04 00:53:50;;;;;;;9.90;5.58;;;;;;;2.98;69.42;96827.40;1728796;81;21496;-86
2021/05/04 00:56:19;;;;;;;7.37;4.70;;;;;;;2.96;69.43;96825.01;1736257;81;21128;-85
2021/05/04 00:58:50;;;;;;;9.70;5.55;;;;;;;2.93;69.43;96824.13;1742042;81;21164;-86
2021/05/04 01:01:17;;;;;;;8.58;5.30;;;;;;;2.91;69.53;96827.98;1726442;81;21141;-85
2021/05/04 01:03:44;;;;;;;7.53;5.22;;;;;;;2.87;69.56;96825.55;1729788;81;21158;-85
2021/05/04 01:06:11;;;;;;;9.85;5.58;;;;;;;2.88;69.66;96830.55;1731060;81;21105;-86
2021/05/04 01:08:38;;;;;;;7.65;5.40;;;;;;;2.85;69.62;96819.22;1728547;81;21521;-85
2021/05/04 01:11:06;;;;;;;6.90;4.75;;;;;;;2.81;69.83;96821.98;1736460;81;21484;-85
2021/05/04 01:13:33;;;;;;;9.15;5.15;;;;;;;2.78;70.06;96818.50;1669357;84;21180;-85
2021/05/04 01:16:01;;;;;;;7.92;4.95;;;;;;;2.78;70.03;96825.05;1684018;83;21161;-85
2021/05/04 01:18:28;;;;;;;7.53;4.53;;;;;;;2.80;70.09;96823.00;1736380;81;21111;-85
2021/05/04 01:20:55;;;;;;;7.72;4.50;;;;;;;2.84;70.00;96818.14;1738242;81;21130;-85
2021/05/04 01:23:22;;;;;;;7.30;4.97;;;;;;;2.82;70.08;96827.53;1718623;83;21152;-85
2021/05/04 01:25:49;;;;;;;9.65;5.30;;;;;;;2.81;69.87;96815.43;1732545;81;21125;-85
2021/05/04 01:28:16;;;;;;;8.23;4.75;;;;;;;2.83;69.84;96810.00;1733909;81;21151;-86
2021/05/04 01:30:43;;;;;;;8.38;4.90;;;;;;;2.84;70.05;96810.28;1722953;82;21191;-85
2021/05/04 01:33:10;;;;;;;7.37;4.33;;;;;;;2.81;69.83;96810.20;1721065;82;21469;-85
2021/05/04 01:35:37;;;;;;;6.28;4.40;;;;;;;2.80;69.91;96809.11;1722420;82;21140;-85
2021/05/04 01:38:04;;;;;;;7.35;4.92;;;;;;;2.82;69.83;96816.27;1728756;81;21658;-85
2021/05/04 01:40:31;;;;;;;9.13;4.72;;;;;;;2.81;69.89;96801.55;1734632;81;21274;-86
2021/05/04 01:42:58;;;;;;;6.42;4.22;;;;;;;2.85;69.88;96802.72;1734853;81;21269;-84
2021/05/04 01:45:25;;;;;;;8.25;4.50;;;;;;;2.89;69.70;96791.56;1736884;81;21266;-85
2021/05/04 01:47:53;;;;;;;7.35;4.58;;;;;;;2.91;69.67;96797.88;1734393;81;21155;-85
2021/05/04 01:50:20;;;;;;;9.40;4.75;;;;;;;2.85;69.58;96790.42;1728015;81;21167;-85
2021/05/04 01:52:47;;;;;;;7.05;4.03;;;;;;;2.90;69.48;96791.05;1725348;81;21270;-85
2021/05/04 01:55:14;;;;;;;6.95;3.98;;;;;;;2.89;69.37;96790.25;1736561;81;21495;-85
2021/05/04 01:57:41;;;;;;;6.50;4.62;;;;;;;2.92;69.12;96781.14;1739388;81;21130;-85
2021/05/04 02:00:10;;;;;;;6.22;3.62;;;;;;;2.90;69.10;96786.61;1736273;81;21149;-85
2021/05/04 02:02:37;;;;;;;5.17;3.60;;;;;;;2.86;69.08;96777.61;1715042;82;21481;-85
2021/05/04 02:05:08;;;;;;;6.30;3.87;;;;;;;2.85;69.21;96780.46;1721273;82;21152;-85
2021/05/04 02:07:35;;;;;;;6.60;3.30;;;;;;;2.87;69.11;96781.03;1726405;82;21128;-85
2021/05/04 02:10:04;;;;;;;6.40;3.60;;;;;;;2.86;68.96;96776.31;1723501;82;21168;-85
2021/05/04 02:12:31;;;;;;;7.30;4.33;;;;;;;2.87;68.95;96773.17;1716898;82;21150;-86
2021/05/04 02:14:58;;;;;;;6.85;3.52;;;;;;;2.89;68.83;96775.84;1721955;82;21135;-85
2021/05/04 02:17:26;;;;;;;5.67;3.20;;;;;;;2.91;68.80;96774.31;1725337;81;21133;-86
2021/05/04 02:19:53;;;;;;;4.85;3.45;;;;;;;2.92;68.59;96775.91;1740791;81;21148;-85
2021/05/04 02:22:20;;;;;;;5.22;3.27;;;;;;;2.92;68.57;96768.05;1741584;82;21554;-85
2021/05/04 02:24:49;;;;;;;3.60;2.45;;;;;;;2.91;68.59;96765.15;1743328;81;21110;-85
2021/05/04 02:27:16;;;;;;;1.98;1.70;;;;;;;2.92;68.44;96772.78;1742770;81;21126;-85
2021/05/04 02:29:43;;;;;;;4.65;2.77;;;;;;;2.93;68.33;96767.03;1724979;81;21165;-85
2021/05/04 02:32:11;;;;;;;6.28;3.27;;;;;;;2.91;68.33;96777.73;1742216;81;21119;-85
2021/05/04 02:34:38;;;;;;;4.67;2.95;;;;;;;2.89;68.29;96768.00;1742698;81;21495;-85
2021/05/04 02:37:05;;;;;;;5.03;3.30;;;;;;;2.86;68.31;96778.92;1717631;82;21172;-85
2021/05/04 02:39:32;;;;;;;6.58;4.35;;;;;;;2.84;68.24;96773.12;1751145;81;21507;-86
2021/05/04 02:41:59;;;;;;;6.72;4.28;;;;;;;2.84;68.26;96778.87;1749051;81;21546;-85
2021/05/04 02:44:26;;;;;;;6.05;3.30;;;;;;;2.80;68.13;96781.11;1752845;81;21124;-86
2021/05/04 02:46:53;;;;;;;5.65;3.30;;;;;;;2.81;68.10;96781.40;1727412;82;21308;-85
2021/05/04 02:49:20;;;;;;;3.98;2.72;;;;;;;2.81;68.09;96776.16;1736002;82;21475;-86
2021/05/04 02:51:47;;;;;;;6.10;3.10;;;;;;;2.83;67.99;96783.31;1743727;81;21132;-85
2021/05/04 02:54:14;;;;;;;4.62;2.92;;;;;;;2.83;68.00;96785.92;1748880;81;21114;-85
2021/05/04 02:56:41;;;;;;;6.55;3.12;;;;;;;2.81;68.02;96781.40;1743065;81;21499;-85
2021/05/04 02:59:08;;;;;;;4.95;2.80;;;;;;;2.78;68.06;96774.00;1724671;82;21511;-85
2021/05/04 03:01:35;;;;;;;5.72;3.37;;;;;;;2.76;68.17;96770.81;1746577;81;21502;-86
2021/05/04 03:04:03;;;;;;;4.20;2.77;;;;;;;2.74;68.20;96788.56;1761546;81;21492;-85
2021/05/04 03:06:30;;;;;;;5.20;2.87;;;;;;;2.72;68.34;96790.62;1732085;81;21135;-85
2021/05/04 03:08:58;;;;;;;4.62;3.37;;;;;;;2.72;68.37;96780.14;1711493;82;21210;-85
2021/05/04 03:11:26;;;;;;;5.47;3.65;;;;;;;2.76;68.25;96785.72;1735384;82;21148;-86
2021/05/04 03:13:54;;;;;;;2.55;1.82;;;;;;;2.77;68.19;96784.19;1719987;82;21447;-85
2021/05/04 03:16:21;;;;;;;6.78;3.40;;;;;;;2.77;68.31;96778.95;1740489;81;21143;-85
2021/05/04 03:18:48;;;;;;;5.83;3.33;;;;;;;2.76;68.18;96782.59;1766079;81;21163;-85
2021/05/04 03:21:15;;;;;;;5.15;3.25;;;;;;;2.79;68.06;96782.14;1755961;81;21138;-85
2021/05/04 03:23:43;;;;;;;5.67;3.30;;;;;;;2.79;67.89;96775.59;1742906;81;21097;-85
2021/05/04 03:26:10;;;;;;;4.22;2.95;;;;;;;2.84;67.71;96771.81;1716522;82;21176;-86
2021/05/04 03:28:37;;;;;;;6.10;2.92;;;;;;;2.85;67.61;96771.30;1764031;80;21116;-85
2021/05/04 03:31:04;;;;;;;4.00;2.72;;;;;;;2.82;67.56;96764.70;1757565;81;21087;-86
2021/05/04 03:33:31;;;;;;;5.60;2.50;;;;;;;2.83;67.54;96764.19;1740617;81;21524;-85
2021/05/04 03:35:58;;;;;;;4.83;2.22;;;;;;;2.88;67.53;96764.30;1709679;83;21158;-85
2021/05/04 03:38:24;;;;;;;6.05;2.72;;;;;;;2.90;67.38;96752.57;1707811;84;21114;-85
2021/05/04 03:40:54;;;;;;;3.45;2.47;;;;;;;2.97;67.11;96749.86;1738247;82;21138;-85
2021/05/04 03:43:21;;;;;;;6.00;3.40;;;;;;;3.07;66.71;96745.35;1757283;81;21100;-85
2021/05/04 03:45:48;;;;;;;4.78;2.50;;;;;;;3.17;66.66;96748.21;1740580;81;21155;-85
2021/05/04 03:48:15;;;;;;;2.70;1.60;;;;;;;3.22;66.42;96736.53;1709630;82;21130;-85
2021/05/04 03:50:42;;;;;;;4.12;2.47;;;;;;;3.24;66.10;96734.50;1750148;81;21117;-85
2021/05/04 03:53:09;;;;;;;2.90;1.90;;;;;;;3.28;66.09;96743.50;1742466;81;21489;-85
2021/05/04 03:55:36;;;;;;;2.90;1.82;;;;;;;3.32;65.96;96738.07;1767741;81;21485;-85
2021/05/04 03:58:03;;;;;;;4.08;2.42;;;;;;;3.35;65.76;96736.30;1761560;81;21521;-85
2021/05/04 04:00:30;;;;;;;4.65;2.70;;;;;;;3.41;65.72;96738.53;1736402;82;21178;-85
2021/05/04 04:02:57;;;;;;;3.50;2.55;;;;;;;3.46;65.76;96735.50;1731212;82;21514;-85
2021/05/04 04:05:24;;;;;;;3.92;3.02;;;;;;;3.51;65.51;96736.11;1723920;82;21138;-85
2021/05/04 04:07:51;;;;;;;4.58;2.40;;;;;;;3.57;65.63;96734.69;1752417;81;21447;-86
2021/05/04 04:10:18;;;;;;;3.70;2.60;;;;;;;3.66;65.17;96726.45;1742238;81;21507;-85
2021/05/04 04:12:45;;;;;;;4.28;2.67;;;;;;;3.76;65.17;96731.91;1735949;81;21157;-86
2021/05/04 04:15:13;;;;;;;5.40;2.92;;;;;;;3.85;64.87;96728.71;1742324;81;21123;-86
2021/05/04 04:17:41;;;;;;;3.80;2.40;;;;;;;3.94;64.71;96719.97;1726863;82;21109;-85
2021/05/04 04:20:09;;;;;;;4.55;2.92;;;;;;;4.03;64.39;96714.63;1727197;82;21118;-85
2021/05/04 04:22:38;;;;;;;4.20;2.70;;;;;;;4.15;64.17;96712.75;1727799;82;21116;-85
2021/05/04 04:25:08;;;;;;;4.05;2.62;;;;;;;4.30;63.70;96718.80;1736031;82;21121;-86
2021/05/04 04:27:35;;;;;;;4.95;2.70;;;;;;;4.45;63.28;96720.89;1727315;82;21132;-85
2021/05/04 04:30:03;;;;;;;4.47;2.50;;;;;;;4.62;62.83;96710.41;1727193;82;21171;-85
2021/05/04 04:32:31;;;;;;;4.83;3.00;;;;;;;4.82;62.02;96713.38;1727062;82;21137;-85
2021/05/04 04:34:58;;;;;;;4.10;2.80;;;;;;;5.06;61.59;96711.36;1718802;82;21176;-85
2021/05/04 04:37:25;;;;;;;3.75;2.70;;;;;;;5.32;61.29;96709.90;1728059;82;21097;-86
2021/05/04 04:39:52;;;;;;;5.20;2.90;;;;;;;6.02;60.23;96709.75;1728272;82;21497;-85
2021/05/04 04:42:19;;;;;;;3.92;2.50;;;;;;;7.80;57.44;96720.39;1727112;82;21158;-86
2021/05/04 04:44:46;;;;;;;4.45;2.70;;;;;;;9.37;55.27;96696.83;1727394;82;21097;-86
2021/05/04 04:47:13;;;;;;;3.95;2.45;;;;;;;10.53;49.87;96700.59;1727332;82;21523;-86
2021/05/04 04:49:41;;;;;;;3.80;2.55;;;;;;;11.66;48.35;96698.02;1727990;81;21132;-86
2021/05/04 04:52:09;;;;;;;3.42;2.40;;;;;;;12.29;45.82;96699.16;1708798;82;21154;-85
2021/05/04 04:54:35;;;;;;;3.62;2.50;;;;;;;12.90;43.63;96700.92;1721611;81;21097;-85
2021/05/04 04:57:04;;;;;;;3.17;2.40;;;;;;;13.15;43.95;96701.59;1730605;81;21093;-85
2021/05/04 04:59:31;;;;;;;5.42;2.60;;;;;;;13.59;43.15;96695.23;1730551;81;21166;-86
2021/05/04 05:01:58;;;;;;;2.65;1.95;;;;;;;14.09;42.35;96692.68;1730107;81;21268;-86
2021/05/04 05:04:25;;;;;;;4.87;2.52;;;;;;;14.41;42.15;96697.60;1730653;81;21158;-86
2021/05/04 05:06:53;;;;;;;3.05;2.05;;;;;;;15.10;40.33;96700.84;1730529;81;21175;-86
2021/05/04 05:09:21;;;;;;;4.03;2.33;;;;;;;15.33;38.55;96696.25;1720963;81;21541;-86
2021/05/04 05:11:48;;;;;;;2.75;2.20;;;;;;;15.56;38.61;96695.66;1748355;81;21135;-86
2021/05/04 05:14:15;;;;;;;4.67;2.62;;;;;;;16.10;36.91;96698.48;1731129;81;21121;-86
2021/05/04 05:16:43;;;;;;;4.15;2.22;;;;;;;16.95;38.27;96692.76;1744732;81;21091;-86
2021/05/04 05:19:10;;;;;;;3.00;1.87;;;;;;;17.92;37.91;96692.98;1729516;81;21530;-86
2021/05/04 05:21:37;;;;;;;3.15;1.67;;;;;;;18.67;36.38;96690.70;1728613;81;21502;-86
2021/05/04 05:24:05;;;;;;;2.60;2.12;;;;;;;19.13;36.09;96682.72;1719070;81;21097;-86
2021/05/04 05:26:33;;;;;;;2.72;2.00;;;;;;;19.08;33.92;96683.72;1730584;81;21112;-86
2021/05/04 05:29:02;;;;;;;3.92;2.02;;;;;;;19.10;34.71;96680.70;1728561;81;21218;-86
2021/05/04 05:31:31;;;;;;;3.77;2.02;;;;;;;19.49;33.23;96677.45;1730563;81;21481;-86
2021/05/04 05:33:58;;;;;;;4.80;2.40;;;;;;;19.49;32.45;96686.86;1729621;81;21206;-86
2021/05/04 05:36:25;;;;;;;3.62;2.10;;;;;;;19.49;31.23;96676.10;1731720;81;21497;-86
2021/05/04 05:38:52;;;;;;;2.60;1.90;;;;;;;19.66;31.95;96676.48;1736862;81;21138;-86
2021/05/04 05:41:19;;;;;;;2.33;1.92;;;;;;;19.22;30.89;96671.34;1735236;81;21610;-86
2021/05/04 05:43:47;;;;;;;2.45;1.67;;;;;;;18.77;29.95;96668.61;1721358;81;21484;-86
2021/05/04 05:46:14;;;;;;;2.65;1.70;;;;;;;18.53;31.01;96667.89;1719294;81;21122;-86
2021/05/04 05:48:42;;;;;;;3.70;1.50;;;;;;;18.87;28.77;96661.50;1726649;81;21153;-86
2021/05/04 05:51:10;;;;;;;2.02;1.55;;;;;;;19.24;29.62;96669.09;1728552;81;21101;-86
2021/05/04 05:53:38;;;;;;;2.47;1.77;;;;;;;19.69;29.95;96652.16;1726938;81;21138;-86
2021/05/04 05:56:06;;;;;;;2.10;1.70;;;;;;;20.07;30.19;96652.61;1730798;81;21500;-86
2021/05/04 05:58:34;;;;;;;3.27;1.50;;;;;;;20.49;29.46;96657.73;1728881;81;21170;-86
2021/05/04 06:01:01;;;;;;;3.20;2.00;;;;;;;21.06;28.24;96653.92;1729779;81;21751;-86
2021/05/04 06:03:30;;;;;;;3.95;1.98;;;;;;;21.06;28.24;96653.92;1729157;81;21162;-86
2021/05/04 06:05:58;;;;;;;1.85;1.52;;;;;;;21.36;28.51;96647.60;1727752;81;21515;-86
2021/05/04 06:08:26;;;;;;;2.55;1.40;;;;;;;22.08;27.48;96637.97;1727171;81;21145;-86
2021/05/04 06:10:54;;;;;;;1.70;1.50;;;;;;;22.47;27.09;96632.85;1733515;81;21498;-87
2021/05/04 06:13:22;;;;;;;3.15;1.37;;;;;;;22.84;27.11;96637.88;1739940;81;21089;-85
2021/05/04 06:15:49;;;;;;;1.77;1.40;;;;;;;23.10;25.35;96630.45;1713707;82;21209;-86
2021/05/04 06:18:17;;;;;;;1.42;1.25;;;;;;;21.21;26.39;96632.94;1740081;81;21484;-86
2021/05/04 06:20:44;;;;;;;2.72;1.47;;;;;;;21.08;26.12;96633.35;1710591;82;21261;-86
2021/05/04 06:23:11;;;;;;;2.72;1.40;;;;;;;20.23;27.73;96626.34;1742552;81;21154;-87
2021/05/04 06:25:39;;;;;;;2.80;1.52;;;;;;;17.92;27.42;96617.88;1706961;83;21121;-85
2021/05/04 06:28:08;;;;;;;1.87;1.40;;;;;;;15.96;29.99;96619.73;1696943;84;21125;-85
2021/05/04 06:30:37;;;;;;;1.67;1.20;;;;;;;15.14;31.38;96613.68;1721661;82;21149;-85
2021/05/04 06:33:11;;;;;;;1.35;1.15;;;;;;;14.34;32.19;96609.20;1726877;81;21291;-85
2021/05/04 06:35:41;;;;;;;1.80;1.40;;;;;;;13.44;33.25;96614.84;1740886;81;21146;-85
2021/05/04 06:38:13;;;;;;;;;;;;;;;12.86;34.36;96610.01;1713192;82;21114;-85
2021/05/04 06:40:42;;;;;;;2.72;1.40;;;;;;;12.42;35.27;96609.92;1746523;81;20145;-85
2021/05/04 06:43:10;;;;;;;2.15;1.22;;;;;;;12.52;35.64;96599.64;1753340;81;21111;-85
2021/05/04 06:45:38;;;;;;;3.10;1.65;;;;;;;13.31;35.88;96595.11;1739413;81;21467;-86
2021/05/04 06:48:06;;;;;;;2.17;1.45;;;;;;;16.03;35.08;96591.95;1724597;81;21495;-85
2021/05/04 06:50:33;;;;;;;2.50;1.82;;;;;;;18.50;32.38;96580.75;1710200;82;21150;-86
2021/05/04 06:53:01;;;;;;;1.30;1.20;;;;;;;20.31;29.11;96575.06;1733910;81;21542;-86
2021/05/04 06:55:28;;;;;;;2.22;1.45;;;;;;;20.81;28.56;96566.23;1723341;81;21481;-86
2021/05/04 06:57:55;;;;;;;1.85;1.67;;;;;;;21.82;28.54;96560.27;1738599;81;21180;-86
2021/05/04 07:13:55;;;;;;;1.75;1.37;;;;;;;27.80;22.29;96521.23;1780032;79;23009;-80
2021/05/04 07:16:22;;;;;;;2.22;1.67;;;;;;;27.15;20.71;96523.77;1772316;80;21132;-79
2021/05/04 07:18:49;;;;;;;3.30;2.00;;;;;;;25.28;21.95;96517.09;1765124;80;21118;-81
2021/05/04 07:21:16;;;;;;;3.05;2.00;;;;;;;23.03;22.89;96507.27;1761690;81;21302;-82
2021/05/04 07:23:43;;;;;;;2.50;1.95;;;;;;;22.47;24.29;96505.09;1764927;80;21276;-82
2021/05/04 07:26:13;;;;;;;2.35;1.90;;;;;;;22.28;23.88;96503.20;1764686;80;21269;-81
2021/05/04 07:28:41;;;;;;;3.60;1.87;;;;;;;23.23;23.87;96505.30;1765774;81;21269;-82
2021/05/04 07:31:08;;;;;;;1.72;1.62;;;;;;;24.17;23.93;96500.81;1750353;81;21535;-81
2021/05/04 07:33:35;;;;;;;3.30;2.17;;;;;;;22.54;22.14;96507.95;1765920;80;21298;-81
2021/05/04 07:36:03;;;;;;;3.02;2.25;;;;;;;20.79;24.19;96499.22;1765896;80;21608;-81
2021/05/04 07:38:30;;;;;;;2.17;1.98;;;;;;;19.10;25.42;96493.38;1767010;81;21110;-81
2021/05/04 07:40:57;;;;;;;2.33;2.10;;;;;;;19.22;25.23;96489.91;1765353;81;21182;-81
2021/05/04 07:43:24;;;;;;;2.72;2.22;;;;;;;20.48;26.00;96486.50;1765578;80;21163;-81
2021/05/04 07:45:52;;;;;;;2.10;1.90;;;;;;;20.90;24.44;96481.98;1774063;80;21351;-82
2021/05/04 07:48:19;;;;;;;2.98;1.87;;;;;;;21.85;24.29;96471.27;1764497;81;21141;-82
2021/05/04 07:50:47;;;;;;;4.17;1.90;;;;;;;22.58;23.52;96468.83;1767378;81;21144;-81
2021/05/04 07:53:15;;;;;;;2.77;2.08;;;;;;;23.23;24.58;96453.33;1770208;80;21639;-82
2021/05/04 07:55:42;;;;;;;2.58;2.27;;;;;;;24.50;22.98;96456.71;1770045;81;21136;-82
2021/05/04 07:58:10;;;;;;;3.67;2.58;;;;;;;23.90;22.63;96470.30;1768629;80;21503;-82
2021/05/04 08:00:37;;;;;;;3.77;2.00;;;;;;;23.23;23.16;96444.44;1771020;81;21119;-82
2021/05/04 08:03:04;;;;;;;2.40;2.05;;;;;;;23.93;23.52;96454.70;1769000;80;21169;-82
2021/05/04 08:05:31;;;;;;;2.20;2.00;;;;;;;24.87;23.57;96454.72;1765517;81;21141;-82
2021/05/04 08:07:58;;;;;;;2.27;1.62;;;;;;;25.29;21.79;96441.30;1769366;81;21147;-82
2021/05/04 08:10:26;;;;;;;2.77;2.05;;;;;;;25.52;21.61;96435.64;1771947;80;21151;-82
2021/05/04 08:12:53;;;;;;;2.65;1.95;;;;;;;25.07;21.93;96426.05;1758373;80;21656;-82
2021/05/04 08:15:22;;;;;;;3.27;1.87;;;;;;;24.88;22.11;96422.38;1736763;82;21188;-82
2021/05/04 08:17:55;;;;;;;2.42;1.90;;;;;;;25.32;22.64;96431.05;1733635;82;21155;-82
2021/05/04 08:20:19;;;;;;;1.90;1.70;;;;;;;25.86;21.60;96419.91;1728311;82;21164;-82
2021/05/04 08:22:46;;;;;;;1.98;1.15;;;;;;;26.27;21.48;96414.22;1748175;81;21119;-82
2021/05/04 08:25:13;;;;;;;2.52;2.10;;;;;;;25.58;20.15;96411.03;1744962;81;21114;-82
2021/05/04 08:27:41;;;;;;;2.58;1.67;;;;;;;25.06;22.63;96412.29;1740054;82;21506;-83
2021/05/04 08:30:09;;;;;;;1.82;1.60;;;;;;;25.25;21.22;96398.45;1738076;82;21134;-82
2021/05/04 08:32:37;;;;;;;1.90;1.62;;;;;;;24.75;21.91;96401.34;1735133;81;21205;-82
2021/05/04 08:35:05;;;;;;;2.45;1.75;;;;;;;24.68;21.58;96423.77;1744840;82;21149;-82
2021/05/04 08:37:32;;;;;;;2.45;2.12;;;;;;;24.76;21.69;96432.14;1744624;82;21546;-82
2021/05/04 08:39:59;;;;;;;2.95;1.77;;;;;;;24.46;22.83;96428.77;1743608;82;21505;-82
2021/05/04 08:42:26;;;;;;;2.72;1.95;;;;;;;24.43;21.89;96404.56;1707731;83;21161;-81
2021/05/04 08:44:56;;;;;;;2.87;2.00;;;;;;;25.00;21.84;96421.88;1668459;85;21627;-82
2021/05/04 08:47:23;;;;;;;4.00;2.37;;;;;;;24.46;22.27;96405.73;1691823;84;21133;-82
2021/05/04 08:49:50;;;;;;;2.27;2.08;;;;;;;24.21;22.17;96395.98;1656611;85;21158;-82
2021/05/04 08:52:18;;;;;;;3.08;1.72;;;;;;;23.04;22.42;96403.37;1700188;83;21187;-82
2021/05/04 08:54:45;;;;;;;2.62;2.30;;;;;;;21.56;24.03;96401.09;1674743;85;21498;-81
2021/05/04 08:57:12;;;;;;;4.95;2.10;;;;;;;21.30;24.99;96382.04;1677249;85;21568;-81
2021/05/04 08:59:40;;;;;;;2.70;2.00;;;;;;;21.16;24.48;96387.87;1677188;85;21140;-81
2021/05/04 09:02:07;;;;;;;2.30;1.80;;;;;;;20.84;25.95;96382.34;1668677;85;21162;-81
2021/05/04 09:04:37;;;;;;;4.78;2.20;;;;;;;19.30;26.61;96374.02;1686725;85;21135;-81
2021/05/04 09:07:22;;;;;;;2.85;2.37;;;;;;;18.44;28.04;96381.28;1687688;85;21503;-81
2021/05/04 09:10:19;;;;;;;3.10;1.90;;;;;;;18.00;29.66;96359.52;1681839;85;21156;-82
2021/05/04 09:12:43;;;;;;;3.02;2.22;;;;;;;18.19;30.46;96375.89;1677512;84;21164;-82
2021/05/04 09:19:07;;;;;;;3.02;1.98;;;;;;;18.72;29.43;96350.02;1675014;85;21108;-82
2021/05/04 09:21:40;;;;;;;1.25;1.15;;;;;;;17.76;30.29;96333.43;1663840;85;21139;-82
2021/05/04 09:24:41;;;;;;;2.70;1.50;;;;;;;16.46;31.06;96317.45;1817822;79;22866;-81
2021/05/04 09:27:12;;;;;;;1.75;1.47;;;;;;;15.88;32.74;96315.72;1779322;79;21151;-82
2021/05/04 09:29:47;;;;;;;1.70;1.47;;;;;;;15.57;33.12;96327.94;1761292;79;21115;-82
2021/05/04 09:32:31;;;;;;;2.47;1.77;;;;;;;15.56;34.71;96322.92;1760285;79;21736;-81
2021/05/04 09:35:07;;;;;;;3.42;1.25;;;;;;;15.42;34.22;96307.84;1715371;82;21258;-82
2021/05/04 09:37:41;;;;;;;1.85;1.42;;;;;;;15.34;33.30;96295.83;1686536;85;21152;-82
2021/05/04 09:40:30;;;;;;;1.60;1.35;;;;;;;15.17;35.20;96304.64;1685594;84;21201;-82
2021/05/04 09:43:13;;;;;;;2.95;1.60;;;;;;;15.29;35.19;96301.34;1690801;83;21143;-82
2021/05/04 09:45:54;;;;;;;2.20;1.57;;;;;;;15.23;35.69;96295.94;1720953;82;21564;-82
2021/05/04 09:48:37;;;;;;;2.45;1.42;;;;;;;15.26;34.72;96313.44;1726591;83;21115;-82
2021/05/04 09:51:12;;;;;;;1.67;1.50;;;;;;;15.34;35.09;96282.47;1726694;82;21157;-82
2021/05/04 09:53:48;;;;;;;2.12;1.60;;;;;;;15.54;35.88;96287.17;1728629;82;21116;-82
2021/05/04 09:56:19;;;;;;;1.65;1.50;;;;;;;15.68;35.67;96270.98;1728742;83;21173;-82
2021/05/04 09:58:49;;;;;;;1.60;1.32;;;;;;;15.30;34.69;96270.30;1726421;82;21203;-82
2021/05/04 10:01:19;;;;;;;;;;;;;;;15.30;35.62;96270.86;1720698;83;21136;-82
2021/05/04 10:03:49;;;;;;;3.37;1.80;;;;;;;15.32;36.32;96264.09;1726592;83;20155;-82
2021/05/04 10:06:18;;;;;;;2.80;1.50;;;;;;;15.38;35.94;96250.82;1725975;83;21137;-82
2021/05/04 10:08:49;;;;;;;3.47;1.80;;;;;;;15.30;35.30;96256.95;1729592;83;21217;-82
2021/05/04 10:11:22;;;;;;;2.10;1.70;;;;;;;15.38;35.57;96249.48;1727231;82;21139;-82
2021/05/04 10:13:55;;;;;;;3.55;1.65;;;;;;;15.54;35.94;96247.64;1699277;82;21165;-82
2021/05/04 10:16:29;;;;;;;2.98;1.85;;;;;;;15.66;35.90;96223.75;1725388;83;21250;-82
2021/05/04 10:19:02;;;;;;;1.62;1.17;;;;;;;15.67;34.92;96226.66;1720894;83;21123;-82
2021/05/04 10:21:31;;;;;;;2.25;1.65;;;;;;;15.36;34.60;96224.98;1710290;83;21149;-81
2021/05/04 10:23:59;;;;;;;1.40;1.17;;;;;;;15.12;34.56;96211.36;1709693;83;21199;-81
2021/05/04 10:26:29;;;;;;;1.47;1.20;;;;;;;15.13;35.56;96219.59;1713011;83;21142;-82
2021/05/04 10:29:05;;;;;;;1.90;1.42;;;;;;;14.91;35.30;96218.42;1709983;83;21639;-81
2021/05/04 10:31:44;;;;;;;2.67;1.35;;;;;;;14.89;36.61;96216.08;1707721;83;21188;-81
2021/05/04 10:34:34;;;;;;;3.05;1.60;;;;;;;15.04;36.16;96213.47;1717119;83;21162;-81
2021/05/04 13:30:14;;;;;;;1.72;1.00;;;;;;;17.77;27.03;95969.79;1811761;79;22570;-79
2021/05/04 13:32:41;;;;;;;1.45;1.10;;;;;;;17.68;27.56;95957.07;1778772;79;21156;-80
2021/05/04 13:35:13;;;;;;;1.47;1.10;;;;;;;17.69;27.44;95969.34;1771373;80;21128;-80
2021/05/04 13:37:45;;;;;;;3.22;1.30;;;;;;;17.72;28.91;95959.84;1788039;79;21084;-80
2021/05/04 13:48:49;;;;;;;2.42;1.60;;;;;;;17.79;28.13;95956.82;1708982;80;21132;-81
2021/05/04 13:51:16;;;;;;;2.15;1.85;;;;;;;17.57;27.96;95974.70;1784274;80;21108;-81
2021/05/04 13:53:43;;;;;;;3.15;2.10;;;;;;;17.38;27.22;95937.79;1788121;79;21120;-81
2021/05/04 13:56:10;;;;;;;2.37;1.17;;;;;;;17.21;28.15;95965.61;1778237;80;21158;-80
2021/05/04 13:58:37;;;;;;;2.95;1.75;;;;;;;17.18;28.40;95964.95;1784614;80;21119;-80
2021/05/04 14:01:14;;;;;;;1.90;1.20;;;;;;;17.22;29.36;95963.72;1783199;79;21119;-80
2021/05/04 14:03:43;;;;;;;2.47;1.62;;;;;;;17.38;28.95;95947.17;1785925;79;21112;-81
2021/05/04 14:06:35;;;;;;;3.42;2.08;;;;;;;17.36;29.42;95956.66;1783978;79;21520;-80
2021/05/04 14:15:06;;;;;;;1.85;1.42;;;;;;;17.56;28.82;95931.60;1754989;80;21157;-80
2021/05/04 14:28:30;;;;;;;2.62;1.98;;;;;;;17.28;29.66;95938.80;1774247;80;21167;-80
2021/05/04 15:22:21;;;;;;;3.87;2.08;;;;;;;16.28;34.44;95859.37;1781330;79;22275;-77
2021/05/04 15:24:48;;;;;;;3.85;1.70;;;;;;;16.24;34.49;95853.91;1716448;83;21106;-78
2021/05/04 15:27:15;;;;;;;1.90;1.62;;;;;;;16.26;34.43;95858.92;1691950;84;21185;-78
2021/05/04 15:29:42;;;;;;;2.37;1.32;;;;;;;16.29;35.36;95849.67;1708388;82;21167;-78
2021/05/04 15:32:24;;;;;;;2.05;1.52;;;;;;;16.28;34.33;95850.01;1714359;82;21150;-78
2021/05/04 15:34:51;;;;;;;1.50;1.27;;;;;;;16.28;34.43;95844.66;1704875;84;21526;-78
2021/05/04 15:37:18;;;;;;;1.87;1.55;;;;;;;16.27;34.46;95843.09;1690702;84;21147;-79
2021/05/04 15:39:45;;;;;;;1.65;1.55;;;;;;;16.22;34.58;95832.07;1707484;84;21478;-78
2021/05/04 15:42:12;;;;;;;2.20;1.82;;;;;;;16.24;34.98;95835.19;1730589;80;21174;-78
2021/05/04 15:44:39;;;;;;;4.37;1.80;;;;;;;16.24;34.75;95823.71;1730008;82;21105;-78
2021/05/04 15:47:21;;;;;;;2.30;1.65;;;;;;;16.25;34.27;95822.03;1697462;84;21322;-79
2021/05/04 15:49:50;;;;;;;;;;;;;;;16.21;34.35;95818.48;1696701;84;21148;-78
2021/05/04 15:52:32;;;;;;;1.95;1.52;;;;;;;16.19;33.92;95825.28;1684331;84;20405;-78
2021/05/04 16:03:46;;;;;;;1.87;1.50;;;;;;;16.05;34.18;95808.21;1708851;83;21461;-78
2021/05/04 16:09:00;;;;;;;3.17;1.80;;;;;;;15.90;35.15;95808.27;1708687;83;21165;-79
2021/05/04 16:11:26;;;;;;;2.42;1.50;;;;;;;15.77;35.64;95803.27;1690522;83;21524;-79
2021/05/04 16:13:55;;;;;;;2.35;1.40;;;;;;;15.70;35.12;95777.06;1743566;82;21475;-79
2021/05/04 16:16:23;;;;;;;2.70;1.92;;;;;;;15.60;34.64;95802.30;1721540;82;21181;-79
2021/05/04 16:18:57;;;;;;;1.20;1.10;;;;;;;15.57;34.54;95805.61;1723320;82;21095;-79
2021/05/04 16:21:30;;;;;;;3.58;1.60;;;;;;;15.55;34.82;95795.03;1725839;82;21135;-79
2021/05/04 16:24:16;;;;;;;2.15;1.60;;;;;;;15.53;34.60;95792.69;1697681;84;21180;-78